^^
Station Historical Data
Daily Summary for April 18, 2017 Units:  English    Metric   Both
« Previous Day
Next Day »
Daily Weekly Monthly Yearly Custom
  High: Low: Average:
Temperature: 63.1 °F 44.8 °F 52.7 °F
Dew Point: 40.4 °F 32.6 °F 36.6 °F
Humidity: 81% 36% 56%
Wind Speed: 6.0mph 0.0mph 1.6mph
Wind Gust: 13.0mph - -
Wind- - WSW
Pressure: 30.52 in 30.17 in -
Precipitation: 0.00 in    
Historical Graphs
 
 
Tabular Data for April 18, 2017
Time Temperature Dew Point Pressure Wind Wind Speed Wind Gust Humidity Rainfall Rate (Hourly) Conditions
00:00 55.4 °F 34.4 °F 30.17 in NNW 2.0 mph 6.0 mph 45% 0.00 in CLR
00:15 54.9 °F 33.4 °F 30.17 in North 2.0 mph 8.0 mph 44% 0.00 in CLR
00:30 54.7 °F 32.6 °F 30.17 in North 2.0 mph 9.0 mph 43% 0.00 in CLR
00:45 54.3 °F 32.8 °F 30.18 in NNW 1.0 mph 12.0 mph 44% 0.00 in CLR
01:00 53.9 °F 33.0 °F 30.18 in NNW 1.0 mph 8.0 mph 45% 0.00 in CLR
02:15 52.0 °F 34.4 °F 30.19 in NNW 2.0 mph 13.0 mph 51% 0.00 in CLR
02:30 51.6 °F 34.5 °F 30.19 in North 2.0 mph 6.0 mph 52% 0.00 in CLR
02:45 51.1 °F 34.5 °F 30.20 in North 1.0 mph 4.0 mph 53% 0.00 in CLR
03:00 50.9 °F 34.4 °F 30.20 in NNW 2.0 mph 6.0 mph 53% 0.00 in CLR
03:15 50.6 °F 35.0 °F 30.22 in North 1.0 mph 6.0 mph 55% 0.00 in CLR
03:30 50.2 °F 34.2 °F 30.22 in Calm   4.0 mph 54% 0.00 in CLR
03:45 50.1 °F 33.6 °F 30.23 in Calm   6.0 mph 53% 0.00 in CLR
04:00 49.6 °F 33.2 °F 30.23 in Calm   4.0 mph 53% 0.00 in CLR
04:15 48.7 °F 32.8 °F 30.24 in Calm   2.0 mph 54% 0.00 in CLR
04:30 48.5 °F 33.1 °F 30.24 in Calm   3.0 mph 55% 0.00 in CLR
04:45 48.2 °F 33.2 °F 30.25 in Calm   4.0 mph 56% 0.00 in CLR
05:00 47.7 °F 33.7 °F 30.26 in Calm   5.0 mph 58% 0.00 in CLR
05:15 47.3 °F 34.5 °F 30.27 in NNW 1.0 mph 8.0 mph 61% 0.00 in CLR
05:30 47.0 °F 35.0 °F 30.27 in NNW 3.0 mph 7.0 mph 63% 0.00 in CLR
05:45 46.4 °F 35.7 °F 30.28 in Calm   5.0 mph 66% 0.00 in CLR
06:00 45.7 °F 35.3 °F 30.30 in Calm   4.0 mph 67% 0.00 in CLR
06:15 45.3 °F 35.7 °F 30.30 in Calm   3.0 mph 69% 0.00 in CLR
06:30 45.1 °F 35.9 °F 30.31 in Calm   2.0 mph 70% 0.00 in CLR
06:45 45.3 °F 36.1 °F 30.32 in Calm   2.0 mph 70% 0.00 in CLR
07:00 45.4 °F 36.2 °F 30.32 in NNW 1.0 mph 5.0 mph 70% 0.00 in CLR
07:15 46.0 °F 36.8 °F 30.33 in NNW 2.0 mph 6.0 mph 70% 0.00 in CLR
07:30 46.5 °F 36.9 °F 30.33 in NNW 5.0 mph 10.0 mph 69% 0.00 in CLR
07:45 47.1 °F 37.1 °F 30.33 in North 2.0 mph 8.0 mph 68% 0.00 in CLR
08:00 47.8 °F 37.0 °F 30.34 in NW 1.0 mph 8.0 mph 66% 0.00 in CLR
08:15 48.8 °F 37.2 °F 30.35 in Calm   6.0 mph 64% 0.00 in CLR
08:30 49.9 °F 37.0 °F 30.35 in North 5.0 mph 8.0 mph 61% 0.00 in CLR
08:45 51.2 °F 37.7 °F 30.36 in Calm   7.0 mph 60% 0.00 in CLR
09:00 51.4 °F 37.1 °F 30.36 in NNW 2.0 mph 13.0 mph 58% 0.00 in CLR
09:15 51.7 °F 36.9 °F 30.36 in North 2.0 mph 8.0 mph 57% 0.00 in CLR
09:30 52.6 °F 37.3 °F 30.36 in North 2.0 mph 8.0 mph 56% 0.00 in CLR
09:45 52.2 °F 37.4 °F 30.37 in WNW 5.0 mph 10.0 mph 57% 0.00 in CLR
10:00 52.2 °F 37.4 °F 30.37 in NNW 2.0 mph 8.0 mph 57% 0.00 in CLR
10:15 52.6 °F 37.3 °F 30.38 in North 2.0 mph 9.0 mph 56% 0.00 in CLR
10:30 53.2 °F 37.0 °F 30.39 in WNW 2.0 mph 9.0 mph 54% 0.00 in CLR
10:45 53.7 °F 37.4 °F 30.39 in SW 2.0 mph 9.0 mph 54% 0.00 in CLR
11:00 53.8 °F 37.1 °F 30.39 in SSW 1.0 mph 8.0 mph 53% 0.00 in CLR
11:15 54.7 °F 36.4 °F 30.39 in NW 2.0 mph 7.0 mph 50% 0.00 in CLR
11:30 55.3 °F 36.9 °F 30.39 in West 3.0 mph 8.0 mph 50% 0.00 in CLR
11:45 55.4 °F 36.0 °F 30.39 in WNW 2.0 mph 8.0 mph 48% 0.00 in CLR
12:00 55.8 °F 36.4 °F 30.39 in NW 3.0 mph 8.0 mph 48% 0.00 in CLR
12:15 55.9 °F 36.5 °F 30.39 in WNW 3.0 mph 8.0 mph 48% 0.00 in FEW
12:30 57.5 °F 36.8 °F 30.38 in West 2.0 mph 8.0 mph 46% 0.00 in FEW
12:45 58.4 °F 36.0 °F 30.38 in WSW 6.0 mph 8.0 mph 43% 0.00 in FEW
13:00 57.9 °F 34.9 °F 30.38 in SW 3.0 mph 8.0 mph 42% 0.00 in FEW
13:15 58.8 °F 35.8 °F 30.38 in NW 2.0 mph 9.0 mph 42% 0.00 in FEW
13:30 58.8 °F 35.7 °F 30.38 in West 2.0 mph 9.0 mph 42% 0.00 in FEW
13:45 58.9 °F 35.8 °F 30.38 in WSW 2.0 mph 7.0 mph 42% 0.00 in FEW
14:00 60.5 °F 35.4 °F 30.38 in NNW 3.0 mph 7.0 mph 39% 0.00 in FEW
14:15 60.9 °F 35.8 °F 30.37 in West 3.0 mph 8.0 mph 39% 0.00 in FEW
14:30 60.3 °F 35.2 °F 30.37 in WNW 5.0 mph 8.0 mph 39% 0.00 in FEW
14:45 60.5 °F 35.4 °F 30.37 in West 2.0 mph 12.0 mph 39% 0.00 in FEW
15:00 60.9 °F 34.4 °F 30.36 in WSW 3.0 mph 10.0 mph 37% 0.00 in FEW
15:15 61.6 °F 35.7 °F 30.36 in West 1.0 mph 7.0 mph 38% 0.00 in FEW
15:30 61.8 °F 35.9 °F 30.36 in West 2.0 mph 7.0 mph 38% 0.00 in FEW
15:45 62.2 °F 34.9 °F 30.36 in West 1.0 mph 8.0 mph 36% 0.00 in FEW
16:00 63.0 °F 35.6 °F 30.36 in Calm   6.0 mph 36% 0.00 in FEW
16:15 63.1 °F 40.2 °F 30.36 in SW 5.0 mph 10.0 mph 43% 0.00 in FEW
16:30 62.0 °F 40.4 °F 30.36 in SSW 3.0 mph 13.0 mph 45% 0.00 in FEW
16:45 61.6 °F 40.1 °F 30.37 in South 2.0 mph 9.0 mph 45% 0.00 in FEW
17:00 61.6 °F 40.1 °F 30.38 in South 3.0 mph 10.0 mph 45% 0.00 in FEW
17:15 60.4 °F 40.1 °F 30.38 in SSW 2.0 mph 10.0 mph 47% 0.00 in FEW
17:30 60.2 °F 39.3 °F 30.38 in South 3.0 mph 12.0 mph 46% 0.00 in FEW
17:45 59.8 °F 39.5 °F 30.38 in SSW 2.0 mph 12.0 mph 47% 0.00 in FEW
18:00 59.4 °F 39.2 °F 30.39 in South 2.0 mph 10.0 mph 47% 0.00 in FEW
18:15 58.3 °F 39.7 °F 30.39 in South 3.0 mph 13.0 mph 50% 0.00 in FEW
18:30 57.5 °F 40.0 °F 30.40 in SW 3.0 mph 10.0 mph 52% 0.00 in FEW
18:45 56.7 °F 40.2 °F 30.40 in SSE 1.0 mph 6.0 mph 54% 0.00 in FEW
19:00 55.5 °F 39.6 °F 30.41 in South 1.0 mph 9.0 mph 55% 0.00 in FEW
19:15 53.3 °F 38.9 °F 30.42 in SW 2.0 mph 12.0 mph 58% 0.00 in CLR
19:30 51.9 °F 39.3 °F 30.43 in SSW 3.0 mph 9.0 mph 62% 0.00 in CLR
19:45 50.9 °F 38.8 °F 30.44 in Calm   12.0 mph 63% 0.00 in CLR
20:00 50.1 °F 38.4 °F 30.45 in South 1.0 mph 7.0 mph 64% 0.00 in CLR
20:15 49.5 °F 37.8 °F 30.46 in Calm   12.0 mph 64% 0.00 in CLR
20:30 49.0 °F 37.7 °F 30.47 in SSE 1.0 mph 6.0 mph 65% 0.00 in CLR
20:45 48.6 °F 37.7 °F 30.48 in Calm   7.0 mph 66% 0.00 in CLR
21:00 48.0 °F 38.7 °F 30.49 in SSW 1.0 mph 7.0 mph 70% 0.00 in CLR
21:15 47.4 °F 38.1 °F 30.49 in SSW 1.0 mph 5.0 mph 70% 0.00 in CLR
21:30 47.1 °F 37.4 °F 30.50 in Calm   7.0 mph 69% 0.00 in CLR
21:45 46.8 °F 37.1 °F 30.51 in Calm   5.0 mph 69% 0.00 in CLR
22:00 46.4 °F 36.8 °F 30.51 in Calm   4.0 mph 69% 0.00 in CLR
22:15 46.1 °F 36.5 °F 30.51 in North 1.0 mph 4.0 mph 69% 0.00 in CLR
22:30 45.7 °F 37.2 °F 30.51 in West 1.0 mph 4.0 mph 72% 0.00 in CLR
22:45 45.5 °F 38.4 °F 30.52 in WNW 1.0 mph 5.0 mph 76% 0.00 in CLR
23:00 45.3 °F 39.1 °F 30.52 in SSE 1.0 mph 4.0 mph 79% 0.00 in CLR
23:15 45.0 °F 39.2 °F 30.51 in ENE 1.0 mph 6.0 mph 80% 0.00 in SCT
23:30 44.9 °F 39.1 °F 30.51 in West 1.0 mph 6.0 mph 80% 0.00 in SCT
23:45 44.8 °F 39.3 °F 30.51 in Calm   5.0 mph 81% 0.00 in SCT
TarryTown NY Weather
Compliments of Weather Underground - 1.5 mb